sensor_id;sensor_type;location;lat;lon;timestamp;pressure;altitude;pressure_sealevel;temperature;humidity
36242;BME280;22283;42.748;12.732;2023-04-16T00:02:00;96995.84;;;7.66;100.00
36242;BME280;22283;42.748;12.732;2023-04-16T00:07:01;96999.28;;;7.77;100.00
36242;BME280;22283;42.748;12.732;2023-04-16T00:12:02;96996.34;;;8.03;100.00
36242;BME280;22283;42.748;12.732;2023-04-16T00:17:03;96985.94;;;8.01;100.00
36242;BME280;22283;42.748;12.732;2023-04-16T00:22:04;96993.72;;;8.03;100.00
36242;BME280;22283;42.748;12.732;2023-04-16T00:27:05;96999.94;;;8.13;100.00
36242;BME280;22283;42.748;12.732;2023-04-16T00:32:06;96995.72;;;8.10;100.00
36242;BME280;22283;42.748;12.732;2023-04-16T00:37:07;97002.25;;;8.27;100.00
36242;BME280;22283;42.748;12.732;2023-04-16T00:42:07;96995.69;;;8.22;100.00
36242;BME280;22283;42.748;12.732;2023-04-16T00:47:08;97004.41;;;8.33;100.00
36242;BME280;22283;42.748;12.732;2023-04-16T00:52:10;97005.38;;;8.32;100.00
36242;BME280;22283;42.748;12.732;2023-04-16T00:57:11;97012.09;;;8.25;100.00
36242;BME280;22283;42.748;12.732;2023-04-16T01:02:12;97005.84;;;8.26;100.00
36242;BME280;22283;42.748;12.732;2023-04-16T01:07:13;97017.13;;;8.40;100.00
36242;BME280;22283;42.748;12.732;2023-04-16T01:12:14;97023.09;;;8.42;100.00
36242;BME280;22283;42.748;12.732;2023-04-16T01:17:15;97023.09;;;8.42;100.00
36242;BME280;22283;42.748;12.732;2023-04-16T01:22:15;97016.41;;;8.58;100.00
36242;BME280;22283;42.748;12.732;2023-04-16T01:27:16;97022.63;;;8.69;100.00
36242;BME280;22283;42.748;12.732;2023-04-16T01:32:17;97022.94;;;8.75;100.00
36242;BME280;22283;42.748;12.732;2023-04-16T01:37:18;97024.94;;;8.83;100.00
36242;BME280;22283;42.748;12.732;2023-04-16T01:42:19;97022.41;;;8.81;100.00
36242;BME280;22283;42.748;12.732;2023-04-16T01:47:20;97022.75;;;8.88;100.00
36242;BME280;22283;42.748;12.732;2023-04-16T01:52:21;97024.09;;;8.82;100.00
36242;BME280;22283;42.748;12.732;2023-04-16T01:57:22;97030.59;;;8.78;100.00
36242;BME280;22283;42.748;12.732;2023-04-16T02:02:23;97035.84;;;8.78;100.00
36242;BME280;22283;42.748;12.732;2023-04-16T02:07:28;97029.88;;;8.76;100.00
36242;BME280;22283;42.748;12.732;2023-04-16T02:12:31;97029.38;;;8.82;100.00
36242;BME280;22283;42.748;12.732;2023-04-16T02:17:32;97037.41;;;8.81;100.00
36242;BME280;22283;42.748;12.732;2023-04-16T02:22:43;97032.38;;;8.78;100.00
36242;BME280;22283;42.748;12.732;2023-04-16T02:27:47;97026.72;;;8.82;100.00
36242;BME280;22283;42.748;12.732;2023-04-16T02:33:05;97029.88;;;8.76;100.00
36242;BME280;22283;42.748;12.732;2023-04-16T02:38:07;97043.56;;;8.70;100.00
36242;BME280;22283;42.748;12.732;2023-04-16T02:43:09;97036.78;;;8.68;100.00
36242;BME280;22283;42.748;12.732;2023-04-16T02:48:10;97038.09;;;8.62;100.00
36242;BME280;22283;42.748;12.732;2023-04-16T02:53:11;97041.94;;;8.58;100.00
36242;BME280;22283;42.748;12.732;2023-04-16T02:58:11;97049.16;;;8.56;100.00
36242;BME280;22283;42.748;12.732;2023-04-16T03:03:13;97047.75;;;8.52;100.00
36242;BME280;22283;42.748;12.732;2023-04-16T03:08:14;97049.91;;;8.47;100.00
36242;BME280;22283;42.748;12.732;2023-04-16T03:13:14;97054.81;;;8.51;100.00
36242;BME280;22283;42.748;12.732;2023-04-16T03:18:18;97053.75;;;8.43;100.00
36242;BME280;22283;42.748;12.732;2023-04-16T03:23:19;97058.56;;;8.37;100.00
36242;BME280;22283;42.748;12.732;2023-04-16T03:28:20;97053.53;;;8.23;100.00
36242;BME280;22283;42.748;12.732;2023-04-16T03:33:21;97054.41;;;8.24;100.00
36242;BME280;22283;42.748;12.732;2023-04-16T03:38:23;97046.72;;;8.21;100.00
36242;BME280;22283;42.748;12.732;2023-04-16T03:43:28;97061.81;;;8.19;100.00
36242;BME280;22283;42.748;12.732;2023-04-16T03:48:29;97057.59;;;8.27;100.00
36242;BME280;22283;42.748;12.732;2023-04-16T03:53:31;97059.31;;;8.17;100.00
36242;BME280;22283;42.748;12.732;2023-04-16T03:58:32;97063.84;;;8.15;100.00
36242;BME280;22283;42.748;12.732;2023-04-16T04:03:33;97060.06;;;8.08;100.00
36242;BME280;22283;42.748;12.732;2023-04-16T04:08:35;97085.13;;;8.34;100.00
36242;BME280;22283;42.748;12.732;2023-04-16T04:13:38;97091.47;;;8.43;100.00
36242;BME280;22283;42.748;12.732;2023-04-16T04:18:38;97080.38;;;8.40;100.00
36242;BME280;22283;42.748;12.732;2023-04-16T04:23:40;97082.72;;;8.54;100.00
36242;BME280;22283;42.748;12.732;2023-04-16T04:28:42;97092.81;;;8.49;100.00
36242;BME280;22283;42.748;12.732;2023-04-16T04:33:43;97094.97;;;8.44;97.78
36242;BME280;22283;42.748;12.732;2023-04-16T04:38:44;97105.75;;;8.41;98.23
36242;BME280;22283;42.748;12.732;2023-04-16T04:43:45;97098.94;;;8.38;99.24
36242;BME280;22283;42.748;12.732;2023-04-16T04:48:46;97096.63;;;8.33;97.84
36242;BME280;22283;42.748;12.732;2023-04-16T04:53:50;97117.34;;;8.49;96.92
36242;BME280;22283;42.748;12.732;2023-04-16T04:58:51;97111.03;;;8.29;98.01
36242;BME280;22283;42.748;12.732;2023-04-16T05:03:53;97111.84;;;8.30;97.66
36242;BME280;22283;42.748;12.732;2023-04-16T05:08:54;97108.00;;;8.34;97.36
36242;BME280;22283;42.748;12.732;2023-04-16T05:13:55;97145.75;;;8.46;97.18
36242;BME280;22283;42.748;12.732;2023-04-16T05:18:55;97146.47;;;8.36;99.35
36242;BME280;22283;42.748;12.732;2023-04-16T05:23:57;97152.00;;;8.45;99.18
36242;BME280;22283;42.748;12.732;2023-04-16T05:28:58;97149.59;;;8.30;99.82
36242;BME280;22283;42.748;12.732;2023-04-16T05:33:59;97165.03;;;8.46;99.53
36242;BME280;22283;42.748;12.732;2023-04-16T05:38:59;97167.22;;;8.41;98.94
36242;BME280;22283;42.748;12.732;2023-04-16T05:44:00;97147.19;;;8.38;98.52
36242;BME280;22283;42.748;12.732;2023-04-16T05:49:01;97168.19;;;8.40;99.77
36242;BME280;22283;42.748;12.732;2023-04-16T05:54:02;97163.03;;;8.38;98.16
36242;BME280;22283;42.748;12.732;2023-04-16T05:59:03;97157.97;;;8.47;97.13
36242;BME280;22283;42.748;12.732;2023-04-16T06:04:04;97160.59;;;8.58;94.87
36242;BME280;22283;42.748;12.732;2023-04-16T06:09:04;97157.03;;;8.48;95.50
36242;BME280;22283;42.748;12.732;2023-04-16T06:14:05;97166.31;;;8.63;93.60
36242;BME280;22283;42.748;12.732;2023-04-16T06:19:06;97171.59;;;8.63;93.65
36242;BME280;22283;42.748;12.732;2023-04-16T06:24:07;97194.84;;;8.69;93.70
36242;BME280;22283;42.748;12.732;2023-04-16T06:29:08;97169.25;;;8.49;95.77
36242;BME280;22283;42.748;12.732;2023-04-16T06:34:09;97181.44;;;8.61;97.06
36242;BME280;22283;42.748;12.732;2023-04-16T06:39:10;97173.75;;;8.69;95.04
36242;BME280;22283;42.748;12.732;2023-04-16T06:44:10;97193.41;;;8.76;96.03
36242;BME280;22283;42.748;12.732;2023-04-16T06:49:11;97187.88;;;8.79;96.96
36242;BME280;22283;42.748;12.732;2023-04-16T06:54:12;97208.44;;;8.97;95.17
36242;BME280;22283;42.748;12.732;2023-04-16T06:59:13;97194.19;;;8.99;95.47
36242;BME280;22283;42.748;12.732;2023-04-16T07:04:13;97202.31;;;9.07;94.98
36242;BME280;22283;42.748;12.732;2023-04-16T07:09:14;97204.97;;;9.28;95.23
36242;BME280;22283;42.748;12.732;2023-04-16T07:14:17;97190.88;;;9.81;91.01
36242;BME280;22283;42.748;12.732;2023-04-16T07:19:18;97190.34;;;10.39;86.04
36242;BME280;22283;42.748;12.732;2023-04-16T07:24:19;97198.59;;;11.05;81.35
36242;BME280;22283;42.748;12.732;2023-04-16T07:29:20;97201.34;;;11.52;79.73
36242;BME280;22283;42.748;12.732;2023-04-16T07:34:21;97216.09;;;12.03;77.12
36242;BME280;22283;42.748;12.732;2023-04-16T07:39:21;97201.72;;;12.70;70.27
36242;BME280;22283;42.748;12.732;2023-04-16T07:44:22;97206.59;;;12.75;68.07
36242;BME280;22283;42.748;12.732;2023-04-16T07:49:23;97218.63;;;12.97;66.50
36242;BME280;22283;42.748;12.732;2023-04-16T07:54:24;97206.53;;;13.30;67.16
36242;BME280;22283;42.748;12.732;2023-04-16T07:59:25;97202.94;;;13.57;66.87
36242;BME280;22283;42.748;12.732;2023-04-16T08:04:26;97223.38;;;13.57;59.64
36242;BME280;22283;42.748;12.732;2023-04-16T08:09:27;97226.31;;;12.72;63.26
36242;BME280;22283;42.748;12.732;2023-04-16T08:14:28;97230.00;;;12.24;62.93
36242;BME280;22283;42.748;12.732;2023-04-16T08:19:28;97222.22;;;12.13;62.38
36242;BME280;22283;42.748;12.732;2023-04-16T08:24:30;97242.59;;;12.03;61.94
36242;BME280;22283;42.748;12.732;2023-04-16T08:29:31;97248.19;;;11.90;62.77
36242;BME280;22283;42.748;12.732;2023-04-16T08:34:32;97247.38;;;11.90;64.29
36242;BME280;22283;42.748;12.732;2023-04-16T08:39:32;97236.34;;;12.04;62.05
36242;BME280;22283;42.748;12.732;2023-04-16T08:44:36;97247.72;;;12.61;59.00
36242;BME280;22283;42.748;12.732;2023-04-16T08:49:38;97237.09;;;12.89;57.52
36242;BME280;22283;42.748;12.732;2023-04-16T08:54:47;97240.84;;;12.96;57.14
36242;BME280;22283;42.748;12.732;2023-04-16T08:59:53;97239.50;;;13.10;55.90
36242;BME280;22283;42.748;12.732;2023-04-16T09:04:58;97242.47;;;13.07;59.27
36242;BME280;22283;42.748;12.732;2023-04-16T09:09:59;97252.47;;;13.13;59.75
36242;BME280;22283;42.748;12.732;2023-04-16T09:15:01;97252.53;;;13.48;59.38
36242;BME280;22283;42.748;12.732;2023-04-16T09:20:05;97259.59;;;13.40;58.96
36242;BME280;22283;42.748;12.732;2023-04-16T09:25:09;97263.00;;;13.04;59.03
36242;BME280;22283;42.748;12.732;2023-04-16T09:30:21;97270.91;;;12.87;58.72
36242;BME280;22283;42.748;12.732;2023-04-16T09:35:22;97277.50;;;12.83;58.50
36242;BME280;22283;42.748;12.732;2023-04-16T09:40:23;97266.13;;;13.27;58.76
36242;BME280;22283;42.748;12.732;2023-04-16T09:45:30;97269.63;;;13.64;55.52
36242;BME280;22283;42.748;12.732;2023-04-16T09:50:31;97278.97;;;13.68;55.58
36242;BME280;22283;42.748;12.732;2023-04-16T09:55:32;97271.88;;;13.41;56.31
36242;BME280;22283;42.748;12.732;2023-04-16T10:00:33;97281.16;;;13.72;56.01
36242;BME280;22283;42.748;12.732;2023-04-16T10:05:34;97279.50;;;13.71;55.25
36242;BME280;22283;42.748;12.732;2023-04-16T10:10:35;97279.78;;;13.33;58.39
36242;BME280;22283;42.748;12.732;2023-04-16T10:15:35;97297.81;;;13.01;59.71
36242;BME280;22283;42.748;12.732;2023-04-16T10:20:36;97305.72;;;12.56;61.75
36242;BME280;22283;42.748;12.732;2023-04-16T10:25:37;97301.19;;;12.66;59.99
36242;BME280;22283;42.748;12.732;2023-04-16T10:30:39;97301.41;;;12.45;58.29
36242;BME280;22283;42.748;12.732;2023-04-16T10:35:44;97310.84;;;12.58;59.23
36242;BME280;22283;42.748;12.732;2023-04-16T10:40:46;97315.84;;;12.70;57.81
36242;BME280;22283;42.748;12.732;2023-04-16T10:45:47;97319.41;;;12.89;57.76
36242;BME280;22283;42.748;12.732;2023-04-16T10:50:55;97330.59;;;12.83;59.42
36242;BME280;22283;42.748;12.732;2023-04-16T10:56:23;97332.84;;;12.77;60.60
36242;BME280;22283;42.748;12.732;2023-04-16T11:01:50;97329.53;;;12.75;63.66
36242;BME280;22283;42.748;12.732;2023-04-16T11:07:18;97337.88;;;12.34;65.98
36242;BME280;22283;42.748;12.732;2023-04-16T11:12:24;97339.38;;;12.46;67.37
36242;BME280;22283;42.748;12.732;2023-04-16T11:17:31;97335.19;;;12.53;65.15
36242;BME280;22283;42.748;12.732;2023-04-16T11:22:34;97342.84;;;12.56;66.81
36242;BME280;22283;42.748;12.732;2023-04-16T11:27:39;97350.38;;;12.51;64.93
36242;BME280;22283;42.748;12.732;2023-04-16T11:32:40;97355.28;;;12.46;62.86
36242;BME280;22283;42.748;12.732;2023-04-16T11:37:41;97331.19;;;12.76;61.26
36242;BME280;22283;42.748;12.732;2023-04-16T11:42:42;97359.63;;;12.94;60.86
36242;BME280;22283;42.748;12.732;2023-04-16T11:47:45;97367.59;;;13.21;58.26
36242;BME280;22283;42.748;12.732;2023-04-16T11:52:47;97362.53;;;13.38;58.32
36242;BME280;22283;42.748;12.732;2023-04-16T11:57:48;97363.34;;;13.84;55.54
36242;BME280;22283;42.748;12.732;2023-04-16T12:02:51;97363.94;;;13.77;54.37
36242;BME280;22283;42.748;12.732;2023-04-16T12:07:52;97349.97;;;14.11;54.08
36242;BME280;22283;42.748;12.732;2023-04-16T12:12:53;97345.91;;;14.43;54.42
36242;BME280;22283;42.748;12.732;2023-04-16T12:18:06;97352.28;;;14.06;56.65
36242;BME280;22283;42.748;12.732;2023-04-16T12:23:07;97362.94;;;13.61;56.83
36242;BME280;22283;42.748;12.732;2023-04-16T12:28:08;97351.41;;;13.24;57.56
36242;BME280;22283;42.748;12.732;2023-04-16T12:33:16;97382.03;;;13.19;58.83
36242;BME280;22283;42.748;12.732;2023-04-16T12:38:17;97348.28;;;13.39;58.02
36242;BME280;22283;42.748;12.732;2023-04-16T12:43:20;97355.81;;;13.61;56.17
36242;BME280;22283;42.748;12.732;2023-04-16T12:48:24;97354.13;;;13.42;56.58
36242;BME280;22283;42.748;12.732;2023-04-16T12:53:25;97355.06;;;13.69;56.39
36242;BME280;22283;42.748;12.732;2023-04-16T12:58:26;97355.44;;;13.28;58.86
36242;BME280;22283;42.748;12.732;2023-04-16T13:03:27;97362.75;;;13.26;57.67
36242;BME280;22283;42.748;12.732;2023-04-16T13:08:28;97366.63;;;12.95;58.16
36242;BME280;22283;42.748;12.732;2023-04-16T13:13:29;97370.56;;;12.91;60.28
36242;BME280;22283;42.748;12.732;2023-04-16T13:18:31;97357.28;;;12.81;61.05
36242;BME280;22283;42.748;12.732;2023-04-16T13:23:33;97377.25;;;12.85;61.56
36242;BME280;22283;42.748;12.732;2023-04-16T13:28:34;97400.75;;;12.70;62.16
36242;BME280;22283;42.748;12.732;2023-04-16T13:33:35;97365.19;;;12.53;65.27
36242;BME280;22283;42.748;12.732;2023-04-16T13:38:35;97404.59;;;12.48;64.39
36242;BME280;22283;42.748;12.732;2023-04-16T13:43:36;97388.25;;;12.34;66.51
36242;BME280;22283;42.748;12.732;2023-04-16T13:48:37;97384.38;;;12.18;66.88
36242;BME280;22283;42.748;12.732;2023-04-16T13:53:38;97378.50;;;12.05;67.34
36242;BME280;22283;42.748;12.732;2023-04-16T13:58:38;97381.00;;;12.26;66.57
36242;BME280;22283;42.748;12.732;2023-04-16T14:03:40;97372.63;;;12.11;67.03
36242;BME280;22283;42.748;12.732;2023-04-16T14:08:41;97371.53;;;12.04;65.56
36242;BME280;22283;42.748;12.732;2023-04-16T14:13:42;97380.31;;;11.85;67.66
36242;BME280;22283;42.748;12.732;2023-04-16T14:18:42;97375.69;;;11.77;66.87
36242;BME280;22283;42.748;12.732;2023-04-16T14:23:43;97366.78;;;11.98;67.89
36242;BME280;22283;42.748;12.732;2023-04-16T14:28:44;97384.34;;;11.99;67.03
36242;BME280;22283;42.748;12.732;2023-04-16T14:33:45;97356.19;;;11.88;68.14
36242;BME280;22283;42.748;12.732;2023-04-16T14:38:46;97391.34;;;12.00;67.52
36242;BME280;22283;42.748;12.732;2023-04-16T14:43:47;97385.41;;;11.67;70.24
36242;BME280;22283;42.748;12.732;2023-04-16T14:48:48;97392.94;;;11.72;71.36
36242;BME280;22283;42.748;12.732;2023-04-16T14:53:49;97402.16;;;11.68;70.44
36242;BME280;22283;42.748;12.732;2023-04-16T14:58:49;97400.47;;;11.57;72.15
36242;BME280;22283;42.748;12.732;2023-04-16T15:03:50;97404.63;;;11.50;72.30
36242;BME280;22283;42.748;12.732;2023-04-16T15:08:51;97409.25;;;11.67;66.73
36242;BME280;22283;42.748;12.732;2023-04-16T15:13:51;97414.16;;;11.62;66.55
36242;BME280;22283;42.748;12.732;2023-04-16T15:18:52;97415.50;;;11.47;68.76
36242;BME280;22283;42.748;12.732;2023-04-16T15:23:53;97412.94;;;11.26;70.22
36242;BME280;22283;42.748;12.732;2023-04-16T15:28:55;97427.81;;;11.17;70.75
36242;BME280;22283;42.748;12.732;2023-04-16T15:33:55;97451.84;;;11.04;68.96
36242;BME280;22283;42.748;12.732;2023-04-16T15:38:56;97438.47;;;11.06;70.39
36242;BME280;22283;42.748;12.732;2023-04-16T15:43:57;97434.16;;;11.05;69.03
36242;BME280;22283;42.748;12.732;2023-04-16T15:48:57;97432.34;;;11.05;69.21
36242;BME280;22283;42.748;12.732;2023-04-16T15:53:59;97434.50;;;11.21;68.46
36242;BME280;22283;42.748;12.732;2023-04-16T15:59:00;97448.69;;;11.20;67.73
36242;BME280;22283;42.748;12.732;2023-04-16T16:04:01;97446.06;;;11.20;69.48
36242;BME280;22283;42.748;12.732;2023-04-16T16:09:01;97442.25;;;10.82;74.88
36242;BME280;22283;42.748;12.732;2023-04-16T16:14:08;97457.09;;;10.74;75.98
36242;BME280;22283;42.748;12.732;2023-04-16T16:19:09;97444.72;;;10.74;76.14
36242;BME280;22283;42.748;12.732;2023-04-16T16:24:12;97432.66;;;10.81;72.09
36242;BME280;22283;42.748;12.732;2023-04-16T16:29:13;97444.75;;;10.84;71.98
36242;BME280;22283;42.748;12.732;2023-04-16T16:34:14;97446.94;;;11.00;70.55
36242;BME280;22283;42.748;12.732;2023-04-16T16:39:15;97441.81;;;10.77;74.36
36242;BME280;22283;42.748;12.732;2023-04-16T16:44:19;97453.03;;;10.49;78.42
36242;BME280;22283;42.748;12.732;2023-04-16T16:49:20;97447.53;;;10.41;79.15
36242;BME280;22283;42.748;12.732;2023-04-16T16:54:21;97430.81;;;10.08;80.43
36242;BME280;22283;42.748;12.732;2023-04-16T16:59:24;97444.19;;;10.06;82.04
36242;BME280;22283;42.748;12.732;2023-04-16T17:04:25;97458.25;;;9.96;82.69
36242;BME280;22283;42.748;12.732;2023-04-16T17:09:26;97450.00;;;9.78;84.32
36242;BME280;22283;42.748;12.732;2023-04-16T17:14:27;97459.75;;;9.77;84.13
36242;BME280;22283;42.748;12.732;2023-04-16T17:19:28;97464.41;;;9.74;83.86
36242;BME280;22283;42.748;12.732;2023-04-16T17:24:28;97468.28;;;9.70;84.03
36242;BME280;22283;42.748;12.732;2023-04-16T17:29:29;97464.56;;;9.61;84.31
36242;BME280;22283;42.748;12.732;2023-04-16T17:34:30;97473.00;;;9.55;84.82
36242;BME280;22283;42.748;12.732;2023-04-16T17:39:31;97478.97;;;9.57;85.32
36242;BME280;22283;42.748;12.732;2023-04-16T17:44:31;97485.47;;;9.53;85.46
36242;BME280;22283;42.748;12.732;2023-04-16T17:49:32;97487.41;;;9.51;85.23
36242;BME280;22283;42.748;12.732;2023-04-16T17:54:33;97493.63;;;9.50;86.03
36242;BME280;22283;42.748;12.732;2023-04-16T17:59:34;97495.56;;;9.48;86.37
36242;BME280;22283;42.748;12.732;2023-04-16T18:04:35;97509.97;;;9.44;86.23
36242;BME280;22283;42.748;12.732;2023-04-16T18:09:35;97486.06;;;9.34;86.17
36242;BME280;22283;42.748;12.732;2023-04-16T18:14:36;97491.94;;;9.38;85.49
36242;BME280;22283;42.748;12.732;2023-04-16T18:19:38;97493.16;;;9.33;84.99
36242;BME280;22283;42.748;12.732;2023-04-16T18:24:40;97493.53;;;9.29;86.02
36242;BME280;22283;42.748;12.732;2023-04-16T18:29:40;97502.66;;;9.36;84.95
36242;BME280;22283;42.748;12.732;2023-04-16T18:34:41;97518.94;;;9.30;85.49
36242;BME280;22283;42.748;12.732;2023-04-16T18:39:42;97514.63;;;9.29;84.79
36242;BME280;22283;42.748;12.732;2023-04-16T18:44:42;97523.63;;;9.26;85.46
36242;BME280;22283;42.748;12.732;2023-04-16T18:49:43;97522.09;;;9.35;84.44
36242;BME280;22283;42.748;12.732;2023-04-16T18:54:44;97526.03;;;9.29;86.38
36242;BME280;22283;42.748;12.732;2023-04-16T18:59:44;97535.41;;;9.33;83.46
36242;BME280;22283;42.748;12.732;2023-04-16T19:04:45;97530.63;;;9.39;82.69
36242;BME280;22283;42.748;12.732;2023-04-16T19:09:46;97523.88;;;9.46;80.74
36242;BME280;22283;42.748;12.732;2023-04-16T19:14:46;97524.38;;;9.40;81.10
36242;BME280;22283;42.748;12.732;2023-04-16T19:19:47;97533.72;;;9.44;81.55
36242;BME280;22283;42.748;12.732;2023-04-16T19:24:48;97545.72;;;9.36;82.19
36242;BME280;22283;42.748;12.732;2023-04-16T19:29:48;97538.25;;;9.30;82.33
36242;BME280;22283;42.748;12.732;2023-04-16T19:34:49;97535.28;;;9.24;83.34
36242;BME280;22283;42.748;12.732;2023-04-16T19:39:50;97539.72;;;9.23;84.51
36242;BME280;22283;42.748;12.732;2023-04-16T19:44:50;97544.41;;;9.20;84.00
36242;BME280;22283;42.748;12.732;2023-04-16T19:49:52;97532.16;;;9.19;84.96
36242;BME280;22283;42.748;12.732;2023-04-16T19:54:52;97537.28;;;9.09;86.46
36242;BME280;22283;42.748;12.732;2023-04-16T19:59:53;97531.78;;;9.12;84.67
36242;BME280;22283;42.748;12.732;2023-04-16T20:04:54;97541.84;;;9.18;83.90
36242;BME280;22283;42.748;12.732;2023-04-16T20:09:55;97543.28;;;9.22;81.95
36242;BME280;22283;42.748;12.732;2023-04-16T20:14:55;97554.47;;;9.15;83.87
36242;BME280;22283;42.748;12.732;2023-04-16T20:19:56;97541.97;;;9.05;85.28
36242;BME280;22283;42.748;12.732;2023-04-16T20:25:00;97538.97;;;9.10;84.98
36242;BME280;22283;42.748;12.732;2023-04-16T20:30:01;97528.41;;;8.99;87.73
36242;BME280;22283;42.748;12.732;2023-04-16T20:35:03;97531.38;;;8.94;86.64
36242;BME280;22283;42.748;12.732;2023-04-16T20:40:08;97530.88;;;8.89;87.77
36242;BME280;22283;42.748;12.732;2023-04-16T20:45:09;97520.91;;;8.81;89.26
36242;BME280;22283;42.748;12.732;2023-04-16T20:50:10;97521.66;;;8.83;88.34
36242;BME280;22283;42.748;12.732;2023-04-16T20:55:11;97517.81;;;8.88;87.99
36242;BME280;22283;42.748;12.732;2023-04-16T21:00:12;97514.44;;;8.85;87.29
36242;BME280;22283;42.748;12.732;2023-04-16T21:05:14;97513.84;;;8.82;86.79
36242;BME280;22283;42.748;12.732;2023-04-16T21:10:15;97514.69;;;8.82;86.01
36242;BME280;22283;42.748;12.732;2023-04-16T21:15:19;97518.06;;;8.84;85.56
36242;BME280;22283;42.748;12.732;2023-04-16T21:20:20;97510.00;;;8.86;87.54
36242;BME280;22283;42.748;12.732;2023-04-16T21:25:22;97511.47;;;8.90;84.84
36242;BME280;22283;42.748;12.732;2023-04-16T21:30:23;97510.53;;;8.91;83.66
36242;BME280;22283;42.748;12.732;2023-04-16T21:35:24;97508.72;;;8.92;82.95
36242;BME280;22283;42.748;12.732;2023-04-16T21:40:25;97515.94;;;9.01;83.22
36242;BME280;22283;42.748;12.732;2023-04-16T21:45:26;97508.25;;;8.98;84.02
36242;BME280;22283;42.748;12.732;2023-04-16T21:50:26;97501.06;;;9.00;84.45
36242;BME280;22283;42.748;12.732;2023-04-16T21:55:27;97519.53;;;9.00;85.29
36242;BME280;22283;42.748;12.732;2023-04-16T22:00:28;97504.06;;;8.95;85.57
36242;BME280;22283;42.748;12.732;2023-04-16T22:05:29;97514.03;;;9.03;84.53
36242;BME280;22283;42.748;12.732;2023-04-16T22:10:31;97499.09;;;8.91;85.82
36242;BME280;22283;42.748;12.732;2023-04-16T22:15:32;97501.00;;;8.77;87.29
36242;BME280;22283;42.748;12.732;2023-04-16T22:20:33;97508.44;;;8.72;88.08
36242;BME280;22283;42.748;12.732;2023-04-16T22:25:38;97505.31;;;8.67;87.85
36242;BME280;22283;42.748;12.732;2023-04-16T22:30:38;97511.66;;;8.65;88.24
36242;BME280;22283;42.748;12.732;2023-04-16T22:35:39;97504.22;;;8.70;87.07
36242;BME280;22283;42.748;12.732;2023-04-16T22:40:40;97502.69;;;8.78;85.35
36242;BME280;22283;42.748;12.732;2023-04-16T22:45:41;97494.34;;;9.07;81.78
36242;BME280;22283;42.748;12.732;2023-04-16T22:50:45;97505.84;;;9.06;82.13
36242;BME280;22283;42.748;12.732;2023-04-16T22:55:47;97509.69;;;9.02;82.50
36242;BME280;22283;42.748;12.732;2023-04-16T23:00:49;97505.84;;;9.06;81.57
36242;BME280;22283;42.748;12.732;2023-04-16T23:05:51;97507.53;;;9.18;80.92
36242;BME280;22283;42.748;12.732;2023-04-16T23:10:52;97499.16;;;9.13;81.47
36242;BME280;22283;42.748;12.732;2023-04-16T23:15:52;97494.59;;;9.15;80.90
36242;BME280;22283;42.748;12.732;2023-04-16T23:20:53;97492.41;;;8.98;84.35
36242;BME280;22283;42.748;12.732;2023-04-16T23:25:54;97482.31;;;8.80;87.82
36242;BME280;22283;42.748;12.732;2023-04-16T23:30:54;97493.28;;;8.63;89.47
36242;BME280;22283;42.748;12.732;2023-04-16T23:35:55;97499.97;;;8.45;91.61
36242;BME280;22283;42.748;12.732;2023-04-16T23:40:56;97506.94;;;8.33;93.51
36242;BME280;22283;42.748;12.732;2023-04-16T23:45:56;97507.63;;;8.24;94.80
36242;BME280;22283;42.748;12.732;2023-04-16T23:50:57;97507.47;;;8.38;91.69
36242;BME280;22283;42.748;12.732;2023-04-16T23:55:58;97501.19;;;8.63;88.54
